Time;durP1;ratioP1;P1;durP2;ratioP2;P2;SDS_P1;SDS_P2;PMS_P1;PMS_P2;Temp;Humidity;BMP_temperature;BMP_pressure;BME280_temperature;BME280_humidity;BME280_pressure;Samples;Min_cycle;Max_cycle;Signal;HPM_P1;HPM_P2
2023/09/06 00:02:06;;;;;;;;;20.00;15.50;;;;;26.20;45.36;101184.88;4956905;28;45360;-34
2023/09/06 00:04:32;;;;;;;;;17.00;17.00;;;;;26.20;45.46;101190.22;4956450;28;47295;-39
2023/09/06 00:06:58;;;;;;;;;19.50;17.00;;;;;26.20;45.55;101184.88;4957055;28;45703;-41
2023/09/06 00:09:23;;;;;;;;;14.50;14.00;;;;;26.20;45.67;101187.53;4959980;28;45321;-36
2023/09/06 00:11:48;;;;;;;;;17.67;15.67;;;;;26.20;45.56;101184.88;4974131;28;61706;-35
2023/09/06 00:14:15;;;;;;;;;15.25;14.75;;;;;26.20;45.72;101185.72;4960046;28;45408;-34
2023/09/06 00:16:41;;;;;;;;;15.50;15.50;;;;;26.20;45.56;101185.72;4959957;28;45898;-37
2023/09/06 00:19:06;;;;;;;;;20.75;16.75;;;;;26.18;46.08;101184.97;4959912;28;45294;-36
2023/09/06 00:21:35;;;;;;;;;21.00;16.25;;;;;26.20;45.84;101179.56;4959862;28;45293;-34
2023/09/06 00:24:00;;;;;;;;;17.25;14.25;;;;;26.20;45.96;101179.56;4959456;28;47053;-33
2023/09/06 00:26:26;;;;;;;;;14.00;14.00;;;;;26.18;45.88;101181.50;4959227;28;57924;-43
2023/09/06 00:28:51;;;;;;;;;20.00;17.00;;;;;26.20;45.86;101179.56;4959649;28;45266;-38
2023/09/06 00:31:17;;;;;;;;;18.25;15.50;;;;;26.18;45.91;101179.69;4959654;28;45566;-38
2023/09/06 00:33:44;;;;;;;;;19.75;18.50;;;;;26.20;45.86;101179.56;4958341;28;46260;-34
2023/09/06 00:36:10;;;;;;;;;16.75;15.75;;;;;26.19;45.98;101170.75;4959444;28;45338;-34
2023/09/06 00:38:35;;;;;;;;;18.75;17.75;;;;;26.18;46.29;101177.03;4959603;28;45425;-35
2023/09/06 00:41:00;;;;;;;;;15.00;15.00;;;;;26.19;45.82;101184.03;4959795;28;45418;-34
2023/09/06 00:43:26;;;;;;;;;25.00;16.25;;;;;26.18;45.95;101179.69;4959109;28;52323;-34
2023/09/06 00:45:51;;;;;;;;;18.00;18.00;;;;;26.18;46.44;101177.03;4959167;28;45469;-35
2023/09/06 00:48:21;;;;;;;;;20.25;17.25;;;;;26.19;46.37;101178.72;4959560;28;45290;-34
2023/09/06 00:50:53;;;;;;;;;19.25;17.75;;;;;26.17;46.34;101175.34;4959956;28;45560;-35
2023/09/06 00:53:20;;;;;;;;;17.00;16.25;;;;;26.18;46.37;101176.19;4957903;28;46964;-34
2023/09/06 00:55:48;;;;;;;;;19.50;19.00;;;;;26.18;46.44;101177.03;4974496;28;46051;-43
2023/09/06 00:58:18;;;;;;;;;20.50;17.25;;;;;26.17;46.48;101180.66;4959524;28;45393;-42
2023/09/06 01:00:48;;;;;;;;;20.75;15.75;;;;;26.18;46.44;101174.34;4959732;28;45306;-42
2023/09/06 01:03:14;;;;;;;;;20.00;16.50;;;;;26.18;46.69;101177.03;4959394;28;45369;-42
2023/09/06 01:06:09;;;;;;;;;19.00;14.50;;;;;26.18;46.55;101176.19;4959005;28;45401;-43
2023/09/06 01:08:57;;;;;;;;;20.75;17.75;;;;;26.19;46.76;101173.41;4950245;28;45338;-45
2023/09/06 01:11:27;;;;;;;;;19.75;19.75;;;;;26.18;46.69;101181.50;4958845;28;45260;-43
2023/09/06 01:13:53;;;;;;;;;22.25;17.75;;;;;26.17;46.88;101170.03;4958845;28;45337;-44
2023/09/06 01:16:25;;;;;;;;;20.00;18.25;;;;;26.17;46.86;101175.34;4958803;28;45448;-41
2023/09/06 01:18:50;;;;;;;;;25.00;19.50;;;;;26.17;46.99;101175.34;4958683;28;45228;-44
2023/09/06 01:21:17;;;;;;;;;22.75;21.25;;;;;26.17;47.01;101170.03;4959402;28;45310;-45
2023/09/06 01:23:44;;;;;;;;;22.75;18.25;;;;;26.16;46.72;101171.00;4958424;28;45385;-44
2023/09/06 01:26:09;;;;;;;;;18.50;16.50;;;;;26.18;46.96;101170.88;4958596;28;45791;-44
2023/09/06 01:28:35;;;;;;;;;24.75;21.25;;;;;26.17;46.90;101174.47;4958711;28;45410;-43
2023/09/06 01:31:01;;;;;;;;;22.75;21.25;;;;;26.17;46.89;101170.03;4958812;28;45369;-44
2023/09/06 01:33:30;;;;;;;;;18.00;14.50;;;;;26.17;46.94;101169.16;4958523;28;45498;-44
2023/09/06 01:35:56;;;;;;;;;22.00;21.25;;;;;26.17;46.94;101170.03;4958518;28;45195;-45
2023/09/06 01:38:22;;;;;;;;;18.00;15.25;;;;;26.17;47.03;101174.47;4958724;28;45278;-43
2023/09/06 01:40:47;;;;;;;;;22.00;21.00;;;;;26.17;46.69;101170.03;4959086;28;45516;-44
2023/09/06 01:43:13;;;;;;;;;18.75;18.25;;;;;26.17;46.63;101167.38;4958387;28;45386;-43
2023/09/06 01:45:45;;;;;;;;;23.50;18.50;;;;;26.17;46.74;101175.34;4958263;28;45406;-43
2023/09/06 01:48:11;;;;;;;;;19.50;17.75;;;;;26.17;46.58;101180.66;4958554;28;45357;-43
2023/09/06 01:50:37;;;;;;;;;24.25;17.00;;;;;26.18;46.88;101173.53;4958533;28;45618;-48
2023/09/06 01:53:02;;;;;;;;;23.25;19.75;;;;;26.17;47.27;101170.03;4973277;28;48076;-46
2023/09/06 01:55:27;;;;;;;;;19.00;17.75;;;;;26.17;47.14;101170.03;4958351;28;45338;-44
2023/09/06 01:57:52;;;;;;;;;25.25;19.00;;;;;26.16;47.18;101173.66;4958393;28;45311;-43
2023/09/06 02:00:28;;;;;;;;;23.25;19.00;;;;;26.16;47.53;101176.31;4958653;28;45476;-45
2023/09/06 02:02:57;;;;;;;;;20.00;16.75;;;;;26.16;47.41;101171.00;4957976;28;45997;-42
2023/09/06 02:05:22;;;;;;;;;17.75;16.00;;;;;26.17;47.68;101179.81;4958138;28;45724;-43
2023/09/06 02:07:48;;;;;;;;;18.50;17.00;;;;;26.16;47.89;101171.00;4957352;28;45292;-43
2023/09/06 02:10:13;;;;;;;;;19.50;17.50;;;;;26.16;47.69;101170.13;4958458;28;45555;-43
2023/09/06 02:12:39;;;;;;;;;17.25;15.00;;;;;26.15;47.68;101177.28;4957864;28;45219;-44
2023/09/06 02:15:06;;;;;;;;;15.00;14.00;;;;;26.16;47.54;101178.97;4972973;28;45263;-43
2023/09/06 02:17:32;;;;;;;;;19.00;16.50;;;;;26.16;47.78;101178.97;4958081;28;45314;-43
2023/09/06 02:20:01;;;;;;;;;16.25;14.50;;;;;26.16;47.76;101176.31;4958231;28;45654;-43
2023/09/06 02:22:27;;;;;;;;;16.25;16.25;;;;;26.16;47.79;101180.75;4957700;28;46507;-46
2023/09/06 02:24:52;;;;;;;;;15.25;15.25;;;;;26.15;47.78;101179.94;4957876;28;45828;-43
2023/09/06 02:27:18;;;;;;;;;16.25;14.50;;;;;26.16;47.79;101188.72;4958238;28;45283;-43
2023/09/06 02:29:43;;;;;;;;;16.00;13.50;;;;;26.16;47.94;101186.06;4957268;28;45299;-43
2023/09/06 02:32:09;;;;;;;;;13.75;13.75;;;;;26.16;47.35;101189.59;4957095;28;57157;-43
2023/09/06 02:34:34;;;;;;;;;14.00;12.25;;;;;26.16;47.50;101186.06;4956388;28;45279;-45
2023/09/06 02:36:59;;;;;;;;;13.00;13.00;;;;;26.16;47.26;101178.97;4957812;28;45367;-41
2023/09/06 02:39:25;;;;;;;;;15.00;11.75;;;;;26.15;47.36;101176.41;4957773;28;45481;-44
2023/09/06 02:41:50;;;;;;;;;11.75;11.00;;;;;26.16;47.21;101175.44;4957950;28;45187;-47
2023/09/06 02:44:16;;;;;;;;;13.25;11.25;;;;;26.16;47.37;101176.31;4957514;28;45394;-44
2023/09/06 02:46:43;;;;;;;;;13.50;11.00;;;;;26.15;47.59;101177.28;4957555;28;45373;-43
2023/09/06 02:49:12;;;;;;;;;14.25;11.75;;;;;26.15;47.59;101174.59;4957971;28;45520;-45
2023/09/06 02:51:43;;;;;;;;;13.00;11.25;;;;;26.15;47.58;101179.94;4957347;28;46472;-44
2023/09/06 02:54:09;;;;;;;;;15.00;15.00;;;;;26.16;47.79;101178.09;4957595;28;45410;-43
2023/09/06 02:56:37;;;;;;;;;16.25;14.50;;;;;26.15;47.54;101177.28;4957669;28;45306;-44
2023/09/06 02:59:12;;;;;;;;;17.00;16.00;;;;;26.14;47.82;101178.22;4957613;28;45180;-44
2023/09/06 03:01:44;;;;;;;;;10.75;8.50;;;;;26.13;47.93;101176.53;4957117;28;46391;-41
2023/09/06 03:04:10;;;;;;;;;12.00;12.00;;;;;26.13;48.11;101173.88;4957247;28;45507;-45
2023/09/06 03:06:37;;;;;;;;;12.75;12.75;;;;;26.13;47.81;101173.88;4972396;28;45366;-46
2023/09/06 03:09:09;;;;;;;;;13.00;11.50;;;;;26.13;48.08;101184.50;4957448;28;45255;-44
2023/09/06 03:11:34;;;;;;;;;11.50;10.00;;;;;26.14;48.02;101180.00;4957097;28;46434;-43
2023/09/06 03:13:59;;;;;;;;;12.25;11.25;;;;;26.13;48.10;101181.84;4957236;28;45405;-43
2023/09/06 03:16:24;;;;;;;;;11.75;10.50;;;;;26.13;47.66;101187.16;4956903;28;55412;-44
2023/09/06 03:18:52;;;;;;;;;13.00;11.00;;;;;26.13;48.05;101181.84;4956746;28;55147;-44
2023/09/06 03:21:18;;;;;;;;;12.50;11.75;;;;;26.13;48.03;101183.66;4956989;28;46373;-46
2023/09/06 03:23:45;;;;;;;;;16.75;12.25;;;;;26.13;47.79;101181.00;4956947;28;45207;-43
2023/09/06 03:26:10;;;;;;;;;13.25;9.00;;;;;26.12;48.07;101168.69;4957190;28;45318;-47
2023/09/06 03:28:40;;;;;;;;;10.75;8.50;;;;;26.13;48.28;101175.69;4957317;28;45485;-47
2023/09/06 03:31:09;;;;;;;;;14.50;10.50;;;;;26.14;48.08;101169.38;4956749;28;46174;-46
2023/09/06 03:33:35;;;;;;;;;9.50;9.25;;;;;26.13;48.22;101170.38;4956947;28;45775;-44
2023/09/06 03:36:07;;;;;;;;;10.50;10.25;;;;;26.14;48.11;101170.25;4957100;28;45232;-45
2023/09/06 03:38:33;;;;;;;;;11.00;9.00;;;;;26.13;48.51;101165.91;4957210;28;45232;-46
2023/09/06 03:41:02;;;;;;;;;15.00;12.00;;;;;26.12;48.32;101166.84;4957359;28;45277;-45
2023/09/06 03:43:30;;;;;;;;;10.50;9.25;;;;;26.12;48.39;101171.34;4959061;28;45742;-43
2023/09/06 03:45:58;;;;;;;;;11.50;11.50;;;;;26.11;48.11;101169.63;4960675;28;45429;-46
2023/09/06 03:48:27;;;;;;;;;8.75;8.75;;;;;26.12;48.31;101180.13;4960848;28;45232;-44
2023/09/06 03:50:56;;;;;;;;;10.25;10.25;;;;;26.12;48.45;101174.81;4960500;28;45369;-44
2023/09/06 03:53:25;;;;;;;;;12.75;11.25;;;;;26.12;48.48;101187.28;4959998;28;45381;-47
2023/09/06 03:55:57;;;;;;;;;10.00;10.00;;;;;26.10;48.35;101179.41;4960170;28;45476;-45
2023/09/06 03:58:22;;;;;;;;;11.00;9.75;;;;;26.11;48.52;101180.25;4960203;28;45597;-45
2023/09/06 04:00:47;;;;;;;;;12.50;10.75;;;;;26.11;48.43;101186.41;4959978;28;46406;-44
2023/09/06 04:03:14;;;;;;;;;9.25;8.00;;;;;26.09;48.84;101177.66;4960137;28;45265;-46
2023/09/06 04:05:40;;;;;;;;;10.00;9.50;;;;;26.09;48.64;101185.63;4960123;28;45319;-47
2023/09/06 04:08:07;;;;;;;;;9.25;9.25;;;;;26.08;48.71;101189.25;4960310;28;45508;-47
2023/09/06 04:10:36;;;;;;;;;12.75;11.00;;;;;26.08;48.83;101186.59;4959753;28;47181;-45
2023/09/06 04:13:06;;;;;;;;;13.00;9.25;;;;;26.07;48.51;101184.94;4959950;28;45397;-46
2023/09/06 04:15:34;;;;;;;;;10.00;9.25;;;;;26.08;48.60;101191.91;4959975;28;45478;-48
2023/09/06 04:18:02;;;;;;;;;11.50;10.50;;;;;26.08;48.38;101186.59;4959021;28;45488;-46
2023/09/06 04:20:31;;;;;;;;;12.25;9.75;;;;;26.08;48.79;101187.47;4959958;28;46415;-48
2023/09/06 04:22:59;;;;;;;;;9.50;9.50;;;;;26.07;48.62;101188.41;4959940;28;45675;-45
2023/09/06 04:25:26;;;;;;;;;11.00;9.25;;;;;26.08;48.69;101186.59;4974910;28;45445;-45
2023/09/06 04:27:56;;;;;;;;;14.25;11.25;;;;;26.08;48.71;101191.91;4959943;28;45617;-44
2023/09/06 04:30:28;;;;;;;;;11.00;9.25;;;;;26.08;48.69;101184.81;4959575;28;46010;-45
2023/09/06 04:32:54;;;;;;;;;12.75;10.25;;;;;26.09;48.77;101182.97;4959435;28;45834;-43
2023/09/06 04:35:22;;;;;;;;;12.25;10.75;;;;;26.10;48.58;101191.84;4959687;28;45437;-44
2023/09/06 04:37:47;;;;;;;;;9.50;9.25;;;;;26.08;48.75;101186.59;4959883;28;45369;-45
2023/09/06 04:40:13;;;;;;;;;9.00;9.00;;;;;26.08;48.88;101183.94;4959198;28;46195;-44
2023/09/06 04:42:40;;;;;;;;;11.00;10.00;;;;;26.08;48.91;101187.47;4959440;28;45771;-45
2023/09/06 04:45:09;;;;;;;;;12.75;11.25;;;;;26.08;48.84;101181.28;4958144;28;45359;-43
2023/09/06 04:47:34;;;;;;;;;11.25;9.50;;;;;26.08;48.97;101186.59;4958402;28;45371;-45
2023/09/06 04:50:00;;;;;;;;;9.00;8.75;;;;;26.07;49.11;101184.94;4959615;28;46110;-43
2023/09/06 04:52:27;;;;;;;;;9.00;9.00;;;;;26.07;48.77;101184.94;4958580;28;45215;-42
2023/09/06 04:54:52;;;;;;;;;11.25;9.50;;;;;26.08;49.10;101194.56;4959375;28;45346;-43
2023/09/06 04:57:18;;;;;;;;;8.00;8.00;;;;;26.07;49.03;101195.56;4958629;28;58774;-41
2023/09/06 04:59:43;;;;;;;;;9.75;9.75;;;;;26.07;49.09;101195.56;4959014;28;46080;-39
2023/09/06 05:02:09;;;;;;;;;10.00;8.25;;;;;26.05;48.92;101198.31;4957760;28;45270;-43
2023/09/06 05:04:36;;;;;;;;;9.75;7.75;;;;;26.03;49.09;101189.59;4959128;28;45267;-47
2023/09/06 05:07:02;;;;;;;;;12.75;9.75;;;;;26.04;48.94;101193.13;4959558;28;45510;-39
2023/09/06 05:09:28;;;;;;;;;10.00;9.00;;;;;26.02;49.19;101192.38;4959211;28;46278;-40
2023/09/06 05:11:53;;;;;;;;;11.00;11.00;;;;;26.01;48.99;101188.03;4958949;28;45255;-41
2023/09/06 05:14:19;;;;;;;;;9.25;9.25;;;;;26.01;49.17;101190.69;4959121;28;45325;-44
2023/09/06 05:16:44;;;;;;;;;8.75;8.25;;;;;25.98;49.25;101197.06;4959067;28;45507;-41
2023/09/06 05:19:10;;;;;;;;;10.25;9.00;;;;;26.00;49.01;101191.63;4973721;28;47446;-43
2023/09/06 05:21:35;;;;;;;;;11.25;8.25;;;;;25.99;49.04;101192.59;4957553;28;46008;-44
2023/09/06 05:24:00;;;;;;;;;8.50;7.50;;;;;25.97;48.69;101192.72;4958693;28;46820;-39
2023/09/06 05:26:26;;;;;;;;;8.25;8.00;;;;;25.97;48.78;101189.19;4959090;28;45563;-39
2023/09/06 05:28:51;;;;;;;;;8.00;8.00;;;;;25.97;48.51;101189.19;4957420;28;47670;-44
2023/09/06 05:31:18;;;;;;;;;10.50;7.50;;;;;25.97;48.81;101189.19;4958430;28;45414;-39
2023/09/06 05:33:43;;;;;;;;;8.00;8.00;;;;;25.97;48.51;101192.72;4958757;28;45459;-41
2023/09/06 05:36:09;;;;;;;;;8.75;8.75;;;;;25.97;48.70;101195.38;4958807;28;45358;-38
2023/09/06 05:38:34;;;;;;;;;7.25;7.25;;;;;25.99;48.52;101198.78;4958536;28;46164;-38
2023/09/06 05:41:00;;;;;;;;;9.00;9.00;;;;;25.99;48.59;101192.59;4958859;28;45420;-38
2023/09/06 05:43:25;;;;;;;;;10.00;8.75;;;;;25.99;49.16;101193.47;4958671;28;45433;-37
2023/09/06 05:45:50;;;;;;;;;10.50;8.00;;;;;25.99;48.71;101203.22;4958107;28;50237;-39
2023/09/06 05:48:16;;;;;;;;;9.50;8.00;;;;;26.00;49.00;101204.91;4956508;28;50895;-35
2023/09/06 05:50:41;;;;;;;;;9.00;9.00;;;;;26.01;48.93;101206.63;4958271;28;45404;-38
2023/09/06 05:53:07;;;;;;;;;11.50;8.25;;;;;25.99;48.89;101203.22;4958372;28;45597;-34
2023/09/06 05:55:32;;;;;;;;;13.25;9.25;;;;;25.98;49.29;101210.34;4958875;28;45219;-35
2023/09/06 05:57:57;;;;;;;;;10.00;10.00;;;;;25.97;49.06;101200.69;4958264;28;45534;-37
2023/09/06 06:00:24;;;;;;;;;11.00;11.00;;;;;25.97;48.69;101213.09;4957970;28;48934;-35
2023/09/06 06:02:50;;;;;;;;;11.25;10.25;;;;;25.96;49.07;101214.91;4958167;28;45719;-38
2023/09/06 06:05:18;;;;;;;;;11.75;9.50;;;;;25.97;48.89;101211.31;4957252;28;45327;-38
2023/09/06 06:07:44;;;;;;;;;12.00;9.25;;;;;25.96;49.15;101214.09;4957915;28;45429;-40
2023/09/06 06:10:12;;;;;;;;;10.25;10.25;;;;;25.96;48.96;101219.41;4957987;28;45398;-41
2023/09/06 06:12:38;;;;;;;;;13.50;11.25;;;;;25.95;48.79;101207.91;4958128;28;45361;-37
2023/09/06 06:15:08;;;;;;;;;11.50;9.25;;;;;25.96;48.93;101214.09;4958530;28;45626;-38
2023/09/06 06:17:35;;;;;;;;;12.75;11.00;;;;;25.97;48.59;101223.72;4956819;28;48245;-38
2023/09/06 06:20:00;;;;;;;;;9.00;9.00;;;;;25.96;48.99;101222.06;4956503;28;45814;-40
2023/09/06 06:22:25;;;;;;;;;12.00;10.75;;;;;25.96;48.85;101224.72;4957987;28;45401;-39
2023/09/06 06:24:50;;;;;;;;;16.50;10.75;;;;;25.96;48.91;101225.53;4957837;28;46316;-39
2023/09/06 06:27:16;;;;;;;;;10.50;8.75;;;;;25.98;48.88;101230.72;4956086;28;60288;-46
2023/09/06 06:29:41;;;;;;;;;10.50;9.50;;;;;25.99;48.68;101233.28;4957433;28;45376;-47
2023/09/06 06:32:07;;;;;;;;;10.00;8.50;;;;;25.99;48.51;101235.09;4957786;28;45392;-46
2023/09/06 06:34:32;;;;;;;;;9.75;9.00;;;;;25.99;48.51;101232.44;4958302;28;45266;-46
2023/09/06 06:36:57;;;;;;;;;9.25;9.25;;;;;26.00;48.82;101223.50;4957609;28;46211;-45
2023/09/06 06:39:23;;;;;;;;;10.75;10.75;;;;;26.01;48.24;101230.50;4957027;28;54899;-45
2023/09/06 06:41:48;;;;;;;;;11.75;10.75;;;;;26.00;48.75;101231.47;4957268;28;50765;-44
2023/09/06 06:44:13;;;;;;;;;12.25;9.50;;;;;26.02;48.67;101234.88;4957024;28;54408;-46
2023/09/06 06:46:39;;;;;;;;;12.75;11.50;;;;;26.03;48.55;101236.56;4959679;28;45814;-47
2023/09/06 06:49:07;;;;;;;;;13.00;11.25;;;;;26.04;48.85;101238.28;4957743;28;45222;-45
2023/09/06 06:51:38;;;;;;;;;12.25;9.25;;;;;26.06;48.70;101246.97;4957787;28;45425;-44
2023/09/06 06:54:14;;;;;;;;;12.75;10.50;;;;;26.07;48.71;101241.53;4957984;28;45421;-43
2023/09/06 06:56:39;;;;;;;;;12.25;10.00;;;;;26.11;48.41;101238.72;4956485;28;45365;-44
2023/09/06 06:59:07;;;;;;;;;10.75;8.00;;;;;26.13;47.92;101245.59;4957703;28;45346;-43
2023/09/06 07:01:32;;;;;;;;;12.50;9.50;;;;;26.14;48.31;101249.94;4957852;28;45909;-44
2023/09/06 07:03:58;;;;;;;;;9.75;8.00;;;;;26.15;47.86;101245.47;4957583;28;45420;-43
2023/09/06 07:06:24;;;;;;;;;11.75;9.50;;;;;26.15;47.80;101249.00;4956895;28;45434;-47
2023/09/06 07:08:51;;;;;;;;;7.50;7.25;;;;;26.15;47.76;101246.34;4957358;28;45821;-45
2023/09/06 07:11:17;;;;;;;;;8.00;8.00;;;;;26.15;47.72;101254.31;4957217;28;45496;-44
2023/09/06 07:13:45;;;;;;;;;12.25;9.25;;;;;26.14;47.44;101249.94;4956276;28;45525;-44
2023/09/06 07:16:10;;;;;;;;;15.00;9.00;;;;;26.14;47.51;101257.06;4957827;28;45617;-42
2023/09/06 07:18:36;;;;;;;;;10.50;9.00;;;;;26.13;47.59;101256.22;4960898;28;45374;-45
2023/09/06 07:21:01;;;;;;;;;10.00;10.00;;;;;26.14;47.52;101265.03;4960505;28;48062;-45
2023/09/06 07:23:27;;;;;;;;;8.50;7.50;;;;;26.15;47.29;101261.41;4960689;28;45369;-43
2023/09/06 07:25:52;;;;;;;;;9.50;8.50;;;;;26.14;47.50;101260.56;4960476;28;47117;-43
2023/09/06 07:28:23;;;;;;;;;7.25;7.25;;;;;26.15;47.35;101262.28;4960453;28;45354;-43
2023/09/06 07:30:48;;;;;;;;;12.00;9.00;;;;;26.18;47.56;101269.16;4960297;28;45303;-45
2023/09/06 07:33:14;;;;;;;;;7.00;7.00;;;;;26.17;47.65;101260.38;4960691;28;45494;-43
2023/09/06 07:35:40;;;;;;;;;6.00;6.00;;;;;26.18;47.69;101262.03;4960406;28;51101;-41
2023/09/06 07:38:05;;;;;;;;;8.00;8.00;;;;;26.20;47.44;101268.09;4960636;28;45280;-43
2023/09/06 07:40:31;;;;;;;;;8.50;8.50;;;;;26.18;47.26;101262.03;4959958;28;54328;-43
2023/09/06 07:42:56;;;;;;;;;7.25;6.25;;;;;26.19;47.61;101255.75;4960408;28;45648;-41
2023/09/06 07:45:22;;;;;;;;;11.25;7.50;;;;;26.22;47.48;101265.34;4960243;28;46019;-43
2023/09/06 07:47:47;;;;;;;;;10.75;9.50;;;;;26.22;47.62;101266.16;4960195;28;45355;-42
2023/09/06 07:50:12;;;;;;;;;6.50;6.50;;;;;26.23;47.36;101264.38;4960171;28;45607;-43
2023/09/06 07:52:38;;;;;;;;;8.00;8.00;;;;;26.21;47.66;101266.28;4960784;28;45559;-43
2023/09/06 07:55:04;;;;;;;;;7.75;7.75;;;;;26.26;47.32;101273.94;4960039;28;45421;-42
2023/09/06 07:57:30;;;;;;;;;9.75;6.50;;;;;26.26;47.32;101273.94;4958870;28;45712;-43
2023/09/06 07:59:55;;;;;;;;;8.00;8.00;;;;;26.26;47.34;101280.06;4959997;28;45457;-42
2023/09/06 08:02:21;;;;;;;;;8.50;7.50;;;;;26.27;47.37;101287.09;4960267;28;45322;-41
2023/09/06 08:04:46;;;;;;;;;9.25;8.00;;;;;26.24;47.83;101280.19;4959793;28;46088;-42
2023/09/06 08:07:12;;;;;;;;;0.00;0.00;;;;;26.26;47.47;101273.94;4959869;28;45798;-41
2023/09/06 08:09:38;;;;;;;;;6.00;6.00;;;;;26.29;47.27;101279.84;4960225;28;45345;-43
2023/09/06 08:12:05;;;;;;;;;8.00;8.00;;;;;26.27;47.77;101271.16;4959972;28;45371;-44
2023/09/06 08:14:31;;;;;;;;;8.75;8.00;;;;;26.30;47.42;101286.00;4959695;28;46168;-45
2023/09/06 08:16:56;;;;;;;;;8.50;5.50;;;;;26.31;47.55;101279.72;4959719;28;45275;-42
2023/09/06 08:19:21;;;;;;;;;6.50;6.50;;;;;26.32;47.42;101289.41;4959846;28;45346;-34
2023/09/06 08:21:47;;;;;;;;;5.75;5.75;;;;;26.32;47.45;101292.06;4959997;28;45568;-34
2023/09/06 08:24:13;;;;;;;;;9.00;7.25;;;;;26.31;47.44;101283.25;4959621;28;46012;-40
2023/09/06 08:26:38;;;;;;;;;9.00;7.75;;;;;26.31;47.73;101279.72;4958849;28;45319;-43
2023/09/06 08:29:05;;;;;;;;;7.75;7.00;;;;;26.31;47.32;101285.91;4959165;28;49030;-43
2023/09/06 08:31:30;;;;;;;;;9.25;7.00;;;;;26.32;47.23;101284.09;4959676;28;45320;-42
2023/09/06 08:33:56;;;;;;;;;7.00;6.00;;;;;26.32;47.48;101279.63;4959512;28;45458;-44
2023/09/06 17:47:52;;;;;;;;;6.00;5.00;;;;;27.04;44.29;101066.88;5777046;23;45328;31
2023/09/06 17:50:17;;;;;;;;;4.00;4.00;;;;;27.05;44.16;101065.91;4955963;28;46943;-37
2023/09/06 17:52:45;;;;;;;;;4.50;4.00;;;;;27.06;44.16;101064.94;4957916;28;46354;-36
2023/09/06 17:55:13;;;;;;;;;4.00;4.00;;;;;27.08;44.28;101066.50;4954047;28;45819;-36
2023/09/06 17:57:41;;;;;;;;;5.50;4.00;;;;;27.09;44.05;101062.88;4952519;28;45387;-37
2023/09/06 18:00:15;;;;;;;;;7.00;4.25;;;;;27.12;44.37;101067.97;4958499;28;45813;-37
2023/09/06 18:02:46;;;;;;;;;5.00;4.25;;;;;27.12;44.26;101065.28;4957453;28;45460;-37
2023/09/06 18:05:12;;;;;;;;;5.50;4.25;;;;;27.17;44.72;101064.94;4940551;28;45672;-37
2023/09/06 18:07:41;;;;;;;;;5.25;4.25;;;;;27.20;44.34;101070.00;4958306;28;45267;-37
2023/09/06 18:10:07;;;;;;;;;6.75;5.50;;;;;27.21;44.20;101069.03;4958073;28;45889;-38
2023/09/06 18:12:33;;;;;;;;;5.75;4.50;;;;;27.21;44.28;101069.03;4957754;28;46090;-38
2023/09/06 18:14:58;;;;;;;;;6.00;5.00;;;;;27.23;44.56;101072.41;4957924;28;45388;-36
2023/09/06 18:17:25;;;;;;;;;6.75;5.50;;;;;27.25;44.13;101074.97;4958290;28;45485;-37
2023/09/06 18:19:50;;;;;;;;;9.00;7.00;;;;;27.26;44.57;101068.66;4958248;28;45500;-37
2023/09/06 18:22:15;;;;;;;;;21.25;15.75;;;;;27.27;44.40;101073.03;4957677;28;45402;-39
2023/09/06 18:24:40;;;;;;;;;33.33;26.67;;;;;27.28;44.31;101075.56;4954598;28;60716;-36
2023/09/06 18:27:06;;;;;;;;;30.00;27.25;;;;;27.31;44.51;101085.09;4948478;28;45461;-36
2023/09/06 18:29:32;;;;;;;;;29.25;25.00;;;;;27.33;44.52;101079.66;4950362;28;45680;-36
2023/09/06 18:31:57;;;;;;;;;37.50;30.50;;;;;27.35;44.35;101080.38;4938464;28;47070;-36
2023/09/06 18:34:22;;;;;;;;;36.75;31.75;;;;;27.35;44.74;101086.53;4938143;28;45315;-36
2023/09/06 18:36:48;;;;;;;;;38.75;33.50;;;;;27.34;44.71;101090.19;4936358;28;45617;-36
2023/09/06 18:39:14;;;;;;;;;48.00;36.75;;;;;27.31;44.47;101095.75;4937018;28;45422;-35
2023/09/06 18:41:42;;;;;;;;;50.25;39.25;;;;;27.31;44.75;101101.91;4938125;28;46235;-36
2023/09/06 18:44:08;;;;;;;;;52.25;41.00;;;;;27.29;44.61;101103.00;4937528;28;45984;-38
2023/09/06 18:46:33;;;;;;;;;54.67;43.67;;;;;27.27;44.85;101111.09;4937983;28;48098;-38
2023/09/06 18:48:58;;;;;;;;;57.75;45.00;;;;;27.25;44.51;101106.88;4938565;28;45449;-37
2023/09/06 18:51:25;;;;;;;;;60.75;43.75;;;;;27.21;44.82;101111.63;4938146;28;45374;-38
2023/09/06 18:53:51;;;;;;;;;57.75;46.25;;;;;27.21;44.79;101116.94;4938080;28;45429;-39
2023/09/06 18:56:17;;;;;;;;;61.00;46.75;;;;;27.20;44.98;101117.03;4938142;28;45478;-36
2023/09/06 18:58:42;;;;;;;;;63.25;46.50;;;;;27.19;45.01;101118.00;4937126;28;45659;-37
2023/09/06 19:01:12;;;;;;;;;57.75;43.75;;;;;27.16;44.92;101125.28;4937949;28;45218;-38
2023/09/06 19:03:37;;;;;;;;;62.75;46.25;;;;;27.16;44.53;101127.94;4937806;28;45327;-39
2023/09/06 19:06:03;;;;;;;;;61.00;47.75;;;;;27.14;44.99;101132.53;4938014;28;45338;-37
2023/09/06 19:08:28;;;;;;;;;60.25;47.50;;;;;27.13;45.08;101136.16;4938468;28;45664;-37
2023/09/06 19:10:54;;;;;;;;;56.50;46.00;;;;;27.11;45.00;101143.41;4937232;28;45506;-35
2023/09/06 19:13:19;;;;;;;;;58.50;45.25;;;;;27.12;45.01;101152.25;4937756;28;45437;-36
2023/09/06 19:15:47;;;;;;;;;58.00;45.75;;;;;27.10;44.77;101148.88;4937911;28;45406;-38
2023/09/06 19:18:13;;;;;;;;;56.75;42.50;;;;;27.10;45.18;101154.19;4938101;28;45318;-39
2023/09/06 19:20:40;;;;;;;;;56.00;43.75;;;;;27.09;45.07;101166.63;4937741;28;45442;-38
2023/09/06 19:23:10;;;;;;;;;54.00;43.00;;;;;27.08;45.45;101159.63;4937816;28;45983;-39
2023/09/06 19:25:41;;;;;;;;;51.75;40.75;;;;;27.08;45.01;101162.28;4937703;28;45287;-40
2023/09/06 19:28:07;;;;;;;;;51.75;40.25;;;;;27.07;45.07;101170.38;4938014;28;45472;-37
2023/09/06 19:30:33;;;;;;;;;55.00;43.00;;;;;27.07;44.92;101168.56;4937598;28;45349;-41
2023/09/06 19:32:58;;;;;;;;;50.75;40.50;;;;;27.05;45.16;101159.88;4937775;28;45325;-41
2023/09/06 19:35:23;;;;;;;;;48.00;38.00;;;;;27.05;45.15;101170.50;4937445;28;46850;-40
2023/09/06 19:37:49;;;;;;;;;47.00;39.25;;;;;27.05;45.53;101164.34;4937840;28;45307;-38
2023/09/06 19:40:14;;;;;;;;;45.00;38.33;;;;;27.10;45.52;101178.13;4936649;28;66712;-39
2023/09/06 19:42:39;;;;;;;;;45.75;38.00;;;;;27.11;45.73;101175.34;4937553;28;45333;-38
2023/09/06 19:45:05;;;;;;;;;47.50;35.00;;;;;27.12;45.57;101177.03;4920422;28;45269;-41
2023/09/06 19:47:31;;;;;;;;;48.50;35.25;;;;;27.15;45.46;101176.81;4945542;28;45271;-36
2023/09/06 19:49:56;;;;;;;;;43.50;35.50;;;;;27.17;45.49;101176.69;4946918;28;52437;-37
2023/09/06 19:52:22;;;;;;;;;42.25;34.00;;;;;27.19;45.28;101171.22;4945281;28;45244;-37
2023/09/06 19:54:47;;;;;;;;;35.75;32.50;;;;;27.22;45.75;101178.97;4946669;28;45330;-37
2023/09/06 19:57:12;;;;;;;;;38.67;32.00;;;;;27.25;45.64;101179.56;4946817;28;45445;-37
2023/09/06 19:59:38;;;;;;;;;33.50;30.50;;;;;27.26;45.69;101181.25;4956266;28;46144;-37
2023/09/06 20:02:04;;;;;;;;;37.00;30.75;;;;;27.27;45.42;101180.31;4956609;28;45323;-38
2023/09/06 20:04:29;;;;;;;;;31.75;27.50;;;;;27.31;45.41;101192.41;4956664;28;45320;-38
2023/09/06 20:06:55;;;;;;;;;34.00;30.00;;;;;27.33;45.27;101184.28;4956770;28;45543;-39
2023/09/06 20:09:20;;;;;;;;;33.50;28.50;;;;;27.35;45.76;101177.03;4944481;28;45887;-37
2023/09/06 20:11:47;;;;;;;;;36.75;27.50;;;;;27.34;45.62;101180.66;4946651;28;50543;-37
2023/09/06 20:14:13;;;;;;;;;31.25;29.00;;;;;27.35;45.58;101179.69;4945739;28;45451;-37
2023/09/06 20:16:38;;;;;;;;;24.25;23.25;;;;;27.37;45.61;101180.44;4946016;28;45415;-37
2023/09/06 20:19:04;;;;;;;;;32.00;27.75;;;;;27.37;45.39;101182.22;4947150;28;45412;-38
2023/09/06 20:21:30;;;;;;;;;28.75;25.50;;;;;27.41;45.46;101187.19;4946783;28;45362;-39
2023/09/06 20:23:56;;;;;;;;;35.75;27.50;;;;;27.37;45.36;101183.09;4947830;28;45374;-38